logo
Rechercher aéroport 
image banner adimage banner adimage banner ad
image banner ad

CN29 - J-B

Situé à Farmington, United States

ICAO - CN29, IATA -

Données fournies par Airmate  

Information générale

Coordonnées: N37°56'7" W121°0'56"
Élévation : 103 feet MSL.
Variation magnétique : 16° East
Voir autres Aéroports à California

Données opérationnelles

Special qualification required
Heure actuelle UTC:
Heure actuelle locale:
Météo à : KSCK - Stockton Metropolitan ( 20 km )
METAR: KSCK 011755Z 26005KT 10SM CLR 24/13 A2981 RMK AO2 SLP095 T02390128 10244 20133 51005
TAF: KSCK 011721Z 0118/0218 32008KT P6SM SKC
Voir NOTAMs / SUP AIP / TFR affectant cet aéroport [VIEW]
Fréquences de communication: [VIEW]

Pistes:

Identifiant RWYQFULongueur (ft)Largeur (ft)SurfaceLDA (ft)
N170040GRASS
S170040GRASS

Coordonnées de l'aéroport

Adresse: Farmington United States

Vue satellite de CN29